Aeroporto :
LOGIN :

Iscrizione | Disclaimer

   EN    FR    IT 

 










Sommario :    VFR   VFR Marginale   IFR   IFR Intensivo   IFR Molto Intensivo
Visibilità : 
Base nubi : 
>= 8 km
>= 3000ft
5 / 8 km
1000 / 3000 ft
1500m / 5 km
500 / 1000 ft
800 / 1500m
200 / 500 ft
< 800m
< 200 ft
Simboli :   Temporali  Nebbia  Neve Forte  Precipitazioni Forti  Vento > 20 kt
SIGMETs :   Varie  Temporali  Ghiacco  Turbolenza  Onda orograficha  Ceneri Vulcaniche






- Altitudine del aeroporto : 97 ft
- Codice IATA : EBJ


EKEB - Esbjerg

ULTIMO METAR :
  • 182050Z AUTO 23015KT 9999 BKN016/// BKN092/// 06/04 Q1006

METARs OBSOLETI :
  • 182020Z AUTO 23014KT 9999 FEW018/// BKN049/// BKN110/// BKN140/// 05/04 Q1006
  • 181950Z AUTO 24015KT 9999 -SHRA BKN014/// 05/04 Q1006
  • 181920Z AUTO 24016KT 9000 -SHRA BKN017/// 05/03 Q1007
  • 181850Z AUTO 24017KT 9999 BKN017/// BKN070/// 06/03 Q1007
  • 181820Z AUTO 24016KT 9999 SCT019/// BKN032/// 06/04 Q1008

TAF AMD TAF EKEB
Valido dal 18 a 20 ore il 18 a 23 ore UTC


182014Z 1820/1823 25015KT 9999 BKN020
TEMPO 1820/1823 25020G30KT 4000 SHRA BKN012 BKN020CB



MetMap, La meteo Aeronautica in un colpo d'occhio ! - Copyright ORBIFLY Dicembre 2007 - Disclaimer

ORBIFLY MET'MAP TEAM :

Programmazione e sviluppo : Alexandra Zaïnal
Concezione : Baudouin d'Aumeries
Aiuto per la programmazione : Marc-Olivier Méhu
Supporto tecnico e logistico : Manuel Goepfert
Aiuto per la traduzione : Arnaldo La Scala

Contatto : metmap@orbifly.com




FONTI E CREDITI :

   NOAA